Nearby METAR Reports

 

KMLP - Mullan Pass, Idaho, USA
Distance from station: NE 41mi, 66km
Updated: Mon, 26-Oct-2020 11:53am PDT
Overcast
Overcast
 Wind from varies
Wind: varies 3 mph , 6 km/h
Temperature: 18°F , -8°C
Dew Point: 10°F , -12°C
Humidity: 73%
Barometer: 30.23 inHg , 1023.7 hPa
Clouds: Overcast
Visibility: 10 miles , 16 km
Cloud details: Overcast 3000 ft
2020/10/26 18:53 KMLP 261853Z AUTO VRB03KT 10SM OVC030 M08/M12 A3023 RMK AO2 SLP318 T10831117
KPUW - Pullman/Moscow, Washington, USA
Distance from station: SW 42mi, 68km
Updated: Mon, 26-Oct-2020 11:53am PDT
Overcast
Overcast
 Wind from ESE
Wind: ESE 8 mph , 13 km/h
Temperature: 28°F , -2°C
Wind Chill: 20°F , -7°C
Dew Point: 21°F , -6°C
Humidity: 74%
Barometer: 30.44 inHg , 1030.8 hPa
Clouds: Overcast
Visibility: 10 miles , 16 km
Cloud details: Overcast 7000 ft
2020/10/26 18:53 KPUW 261853Z AUTO 11007KT 10SM OVC070 M02/M06 A3044 RMK AO2 SLP343 T10171061
 
KCOE - Coeur D'alene, Idaho, USA
Distance from station: NNW 49mi, 79km
Updated: Mon, 26-Oct-2020 11:56am PDT
Overcast
Overcast
 Wind from calm
Wind: Calm
Temperature: 32°F , 0°C
Dew Point: 16°F , -9°C
Humidity: 51%
Barometer: 30.45 inHg , 1031.2 hPa
Clouds: Overcast
Visibility: 10 miles , 16 km
Cloud details: Overcast 6000 ft
2020/10/26 18:56 KCOE 261856Z AUTO 00000KT 10SM OVC060 00/M09 A3045 RMK AO2 SLP362 T00001094 FZRANO
KSFF - Spokane/Felts, Washington, USA
Distance from station: NW 59mi, 94km
Updated: Mon, 26-Oct-2020 11:53am PDT
Overcast
Overcast
 Wind from calm
Wind: Calm
Temperature: 28°F , -2°C
Dew Point: 18°F , -8°C
Humidity: 64%
Barometer: 30.48 inHg , 1032.2 hPa
Clouds: Overcast
Visibility: 10 miles , 16 km
Cloud details: Overcast 6000 ft
2020/10/26 18:53 KSFF 261853Z 00000KT 10SM OVC060 M02/M08 A3048 RMK AO2 SLP346 T10171083
 
KLWS - Lewiston, Idaho, USA
Distance from station: SSW 59mi, 96km
Updated: Mon, 26-Oct-2020 11:56am PDT
Overcast
Overcast
 Wind from calm
Wind: Calm
Temperature: 30°F , -1°C
Dew Point: 21°F , -6°C
Humidity: 69%
Barometer: 30.50 inHg , 1032.8 hPa
Clouds: Overcast
Visibility: 10 miles , 16 km
Cloud details: Overcast 8500 ft
2020/10/26 18:56 KLWS 261856Z 00000KT 10SM OVC085 M01/M06 A3050 RMK AO2 SLP347 T10061061
KGEG - Spokane/Metro, Washington, USA
Distance from station: WNW 64mi, 103km
Updated: Mon, 26-Oct-2020 11:53am PDT
Mostly Cloudy
Mostly Cloudy
 Wind from calm
Wind: Calm
Temperature: 30°F , -1°C
Dew Point: 16°F , -9°C
Humidity: 55%
Barometer: 30.44 inHg , 1030.8 hPa
Clouds: Mostly Cloudy
Visibility: 10 miles , 16 km
Cloud details: Partly Cloudy 6500 ft
Partly Cloudy 9500 ft
Mostly Cloudy 20000 ft
2020/10/26 18:53 KGEG 261853Z 00000KT 10SM SCT065 SCT095 BKN200 M01/M09 A3044 RMK AO2 SLP342 T10111089
 
KSKA - Fairchild Afb, Washington, USA
Distance from station: WNW 68mi, 110km
Updated: Mon, 26-Oct-2020 11:58am PDT
Mostly Cloudy
Mostly Cloudy
 Wind from ESE
Wind: ESE 3 mph , 6 km/h
Temperature: 37°F , 3°C
Dew Point: 18°F , -8°C
Humidity: 45%
Barometer: 30.43 inHg , 1030.5 hPa
Clouds: Mostly Cloudy
Visibility: 10 miles , 16 km
Cloud details: Mostly Cloudy 8500 ft
2020/10/26 18:58 KSKA 261858Z 11003KT 10SM BKN085 03/M08 A3043 RMK AO2A SLP338 T00311083 $